PILOTS ONLINE: 195    ATC ONLINE: 23

Location

IATA BOH
City Bournemouth
Country  United Kingdom
Latitude 50° 46' 47" N
Longitude 1° 50' 33" W
Elevation 38 ft
Type Large Airport

Weather

METAR
2014/07/11 05:20
EGHH 110520Z 34002KT CAVOK 14/13 Q1018
TAF
2013/12/01 21:21
TAF TAF EGHH 010016Z 3021/0106 CNL

Runways

08/26 7451 ft / 151 ft

Outbound flights

Inbound flights


Spotted incorrect airport information? Please login with your VATSIM ID.